Time;durP1;ratioP1;P1;durP2;ratioP2;P2;SDS_P1;SDS_P2;PMS_P1;PMS_P2;Temp;Humidity;BMP_temperature;BMP_pressure;BME280_temperature;BME280_humidity;BME280_pressure;Samples;Min_cycle;Max_cycle;Signal;HPM_P1;HPM_P2
2022/01/25 00:26:46;;;;;;;;;61.75;50.50;;;;;1.05;76.31;102415.44;5014698;28;45423;-77
2022/01/25 00:29:27;;;;;;;;;53.75;45.25;;;;;1.00;76.27;102411.72;5014401;28;45427;-77
2022/01/25 00:31:53;;;;;;;;;43.25;43.25;;;;;0.91;75.66;102419.97;5014851;28;46466;-78
2022/01/25 00:34:18;;;;;;;;;55.00;45.75;;;;;0.89;75.88;102425.09;5013305;28;45570;-76
2022/01/25 00:36:44;;;;;;;;;37.75;30.75;;;;;0.84;75.67;102425.72;5015267;28;45589;-75
2022/01/25 00:39:10;;;;;;;;;32.50;28.25;;;;;0.75;76.14;102425.25;5014936;28;45443;-78
2022/01/25 00:41:35;;;;;;;;;50.50;45.00;;;;;0.70;75.86;102432.84;5014572;28;46412;-77
2022/01/25 00:44:02;;;;;;;;;48.00;43.25;;;;;0.61;75.78;102419.34;5001134;28;45495;-77
2022/01/25 00:46:28;;;;;;;;;50.75;43.25;;;;;0.55;76.31;102429.44;5017868;28;45419;-77
2022/01/25 00:48:59;;;;;;;;;48.25;43.75;;;;;0.43;76.65;102427.13;5016112;28;45332;-76
2022/01/25 00:54:06;;;;;;;;;43.00;41.50;;;;;0.29;77.03;102429.00;5014064;28;45518;-75
2022/01/25 00:56:34;;;;;;;;;46.75;36.25;;;;;0.22;77.16;102429.53;5017421;28;45446;-76
2022/01/25 00:59:04;;;;;;;;;48.50;41.00;;;;;0.14;77.79;102430.00;5015902;28;45410;-76
2022/01/25 01:01:29;;;;;;;;;57.50;45.75;;;;;0.08;78.03;102424.47;5015379;28;47289;-77
2022/01/25 01:03:55;;;;;;;;;48.50;38.75;;;;;0.05;78.07;102426.03;5016764;28;45406;-76
2022/01/25 01:06:22;;;;;;;;;45.50;41.00;;;;;-0.02;78.30;102425.69;5015702;28;45413;-76
2022/01/25 01:08:48;;;;;;;;;34.75;31.25;;;;;-0.06;78.71;102423.75;5017179;28;45329;-76
2022/01/25 01:11:22;;;;;;;;;40.50;33.75;;;;;-0.09;78.83;102428.81;5031692;28;45599;-76
2022/01/25 01:17:11;;;;;;;;;38.50;27.25;;;;;-0.24;79.54;102417.59;5034179;28;45548;-76
2022/01/25 01:30:12;;;;;;;;;45.00;38.75;;;;;-0.41;80.28;102419.25;5003587;28;45470;-75
2022/01/25 01:43:29;;;;;;;;;34.50;31.75;;;;;-0.33;81.00;102440.47;5015908;28;45520;-76
2022/01/25 01:48:59;;;;;;;;;43.50;38.00;;;;;-0.30;81.20;102438.94;5016173;28;45493;-76
2022/01/25 01:53:55;;;;;;;;;34.50;27.00;;;;;-0.29;81.05;102439.81;5014041;28;46160;-75
2022/01/25 01:56:21;;;;;;;;;42.25;35.50;;;;;-0.27;80.92;102435.63;5015667;28;45450;-76
2022/01/25 01:58:46;;;;;;;;;31.50;29.25;;;;;-0.30;81.51;102444.13;5015390;28;45418;-75
2022/01/25 02:01:16;;;;;;;;;41.00;32.00;;;;;-0.38;81.19;102429.81;5015209;28;45483;-75
2022/01/25 02:03:42;;;;;;;;;33.00;28.50;;;;;-0.34;81.31;102439.56;4997790;28;46025;-77
2022/01/25 02:06:07;;;;;;;;;41.75;35.75;;;;;-0.32;81.78;102443.13;5015378;28;45485;-75
2022/01/25 02:08:34;;;;;;;;;36.75;31.00;;;;;-0.31;82.41;102437.13;5015142;28;45466;-75
2022/01/25 02:11:03;;;;;;;;;32.25;29.50;;;;;-0.35;81.69;102432.56;5015052;28;45375;-77
2022/01/25 02:13:29;;;;;;;;;22.75;19.25;;;;;-0.30;81.35;102440.66;5015649;28;45446;-76
2022/01/25 02:15:56;;;;;;;;;40.50;28.75;;;;;-0.37;81.18;102436.81;5019284;28;45400;-77
2022/01/25 02:23:40;;;;;;;;;35.00;28.00;;;;;-0.34;81.18;102443.88;5015363;28;45464;-76
2022/01/25 02:26:07;;;;;;;;;43.50;27.75;;;;;-0.34;81.06;102449.97;5015837;28;45370;-75
2022/01/25 02:28:36;;;;;;;;;27.50;19.00;;;;;-0.40;80.77;102441.84;5015696;28;45458;-77
2022/01/25 02:31:04;;;;;;;;;31.50;28.75;;;;;-0.42;81.07;102435.69;5015156;28;45634;-76
2022/01/25 02:33:30;;;;;;;;;28.00;24.25;;;;;-0.38;80.91;102446.31;5016566;28;45505;-75
2022/01/25 02:35:57;;;;;;;;;23.00;19.50;;;;;-0.37;80.48;102442.00;5015766;28;45469;-76
2022/01/25 02:38:25;;;;;;;;;29.50;22.00;;;;;-0.39;80.36;102439.31;5015334;28;45386;-76
2022/01/25 02:40:51;;;;;;;;;23.25;20.00;;;;;-0.34;80.09;102447.38;5008376;28;45400;-76
2022/01/25 02:43:19;;;;;;;;;30.00;19.25;;;;;-0.34;79.79;102451.69;4995748;28;45461;-76
2022/01/25 02:46:05;;;;;;;;;29.00;25.75;;;;;-0.40;79.94;102432.34;5001192;28;45487;-76
2022/01/25 02:48:31;;;;;;;;;31.50;24.75;;;;;-0.33;79.90;102438.78;5016632;28;45368;-75
2022/01/25 02:51:01;;;;;;;;;38.75;26.50;;;;;-0.34;79.85;102444.78;5015324;28;45408;-74
2022/01/25 02:53:28;;;;;;;;;30.50;27.50;;;;;-0.38;79.80;102440.22;5014658;28;46705;-76
2022/01/25 02:55:54;;;;;;;;;17.25;17.25;;;;;-0.39;80.04;102441.03;5013489;28;45453;-75
2022/01/25 02:58:20;;;;;;;;;37.75;28.75;;;;;-0.40;80.03;102439.25;5014917;28;45442;-75
2022/01/25 03:00:47;;;;;;;;;21.25;13.75;;;;;-0.38;80.16;102448.00;5009996;28;45432;-73
2022/01/25 03:03:13;;;;;;;;;23.50;18.75;;;;;-0.43;80.32;102439.97;5013925;28;45444;-75
2022/01/25 03:05:38;;;;;;;;;26.75;19.00;;;;;-0.41;80.63;102447.84;5014208;28;45565;-75
2022/01/25 03:08:04;;;;;;;;;32.50;25.00;;;;;-0.44;79.86;102439.88;5014956;28;45460;-76
2022/01/25 03:10:38;;;;;;;;;20.50;15.75;;;;;-0.49;80.25;102443.94;5014040;28;45486;-75
2022/01/25 03:13:07;;;;;;;;;25.50;17.25;;;;;-0.51;80.85;102443.84;5014662;28;46354;-74
2022/01/25 03:18:36;;;;;;;;;24.00;21.00;;;;;-0.56;80.43;102443.59;5013052;28;45462;-76
2022/01/25 03:21:34;;;;;;;;;32.00;22.50;;;;;-0.63;80.41;102438.00;5005584;28;45625;-74
2022/01/25 03:23:51;;;;;;;;;28.75;25.25;;;;;-0.51;80.75;102442.97;5014125;28;46032;-76
2022/01/25 03:26:17;;;;;;;;;28.75;24.75;;;;;-0.57;79.95;102431.41;5013919;28;45469;-76
2022/01/25 03:28:43;;;;;;;;;23.75;23.50;;;;;-0.53;80.35;102432.50;5014040;28;45611;-75
2022/01/25 03:31:09;;;;;;;;;19.75;17.25;;;;;-0.53;79.96;102429.91;5014990;28;45403;-75
2022/01/25 03:33:37;;;;;;;;;28.25;22.00;;;;;-0.54;79.63;102434.19;5013937;28;46081;-76
2022/01/25 03:36:04;;;;;;;;;23.50;22.00;;;;;-0.52;79.97;102428.19;5013444;28;45392;-76
2022/01/25 03:38:31;;;;;;;;;16.50;15.50;;;;;-0.54;80.23;102430.69;5014508;28;45372;-75
2022/01/25 03:40:56;;;;;;;;;29.00;18.00;;;;;-0.50;79.71;102423.97;5012751;28;45289;-74
2022/01/25 03:43:22;;;;;;;;;25.75;21.75;;;;;-0.55;79.46;102409.03;5015042;28;45701;-76
2022/01/25 03:46:03;;;;;;;;;28.25;23.00;;;;;-0.59;79.27;102396.69;5015541;28;45288;-75
2022/01/25 03:50:54;;;;;;;;;28.50;23.25;;;;;-0.55;79.85;102405.53;5019065;28;45427;-76
2022/01/25 03:53:20;;;;;;;;;22.75;17.25;;;;;-0.54;79.88;102409.91;5018463;28;45360;-76
2022/01/25 03:55:47;;;;;;;;;21.75;15.75;;;;;-0.57;79.99;102412.34;5018299;28;45383;-73
2022/01/25 03:58:13;;;;;;;;;32.75;23.75;;;;;-0.57;80.54;102408.03;5017603;28;45348;-74
2022/01/25 04:00:40;;;;;;;;;30.75;25.50;;;;;-0.59;80.90;102409.66;5016788;28;45487;-76
2022/01/25 04:03:13;;;;;;;;;43.00;36.50;;;;;-0.64;81.76;102413.69;5017278;28;45414;-76
2022/01/25 04:08:09;;;;;;;;;30.00;29.25;;;;;-0.63;82.50;102412.91;5017753;28;45300;-76
2022/01/25 04:10:36;;;;;;;;;31.25;27.75;;;;;-0.60;83.36;102412.19;5017021;28;45510;-76
2022/01/25 04:13:04;;;;;;;;;31.50;24.50;;;;;-0.60;83.15;102415.66;5020941;28;45404;-81
2022/01/25 04:15:29;;;;;;;;;30.50;26.75;;;;;-0.56;82.73;102412.44;5022378;28;45538;-81
2022/01/25 04:19:00;;;;;;;;;29.25;27.00;;;;;-0.58;83.26;102419.25;5022895;28;45370;-80
2022/01/25 04:21:07;;;;;;;;;30.50;27.00;;;;;-0.51;83.42;102422.19;5010702;28;45535;-80
2022/01/25 04:26:18;;;;;;;;;33.25;24.75;;;;;-0.48;82.94;102417.16;5018530;28;45280;-79
2022/01/25 04:28:43;;;;;;;;;46.25;34.25;;;;;-0.42;82.79;102427.88;5018372;28;45521;-80
2022/01/25 04:31:08;;;;;;;;;40.00;32.50;;;;;-0.43;82.78;102426.09;5018343;28;45410;-81
2022/01/25 04:33:55;;;;;;;;;46.50;33.00;;;;;-0.43;82.17;102420.88;5016638;28;46144;-79
2022/01/25 04:36:54;;;;;;;;;34.25;24.00;;;;;-0.40;82.22;102427.13;5018008;28;45384;-80
2022/01/25 04:50:26;;;;;;;;;35.50;30.50;;;;;-0.42;82.24;102433.09;5014893;28;45443;-81
2022/01/25 04:53:04;;;;;;;;;34.50;30.75;;;;;-0.40;82.54;102436.66;4997146;28;45349;-80
2022/01/25 04:56:19;;;;;;;;;30.25;26.75;;;;;-0.36;82.47;102444.69;4996098;28;46057;-81
2022/01/25 05:01:12;;;;;;;;;37.75;33.00;;;;;-0.38;82.62;102429.81;5013380;28;45762;-81
2022/01/25 05:03:54;;;;;;;;;43.25;38.75;;;;;-0.38;81.86;102432.41;5016992;28;45538;-80
2022/01/25 05:06:22;;;;;;;;;35.50;31.00;;;;;-0.33;82.48;102433.56;5017663;28;46409;-81
2022/01/25 05:08:52;;;;;;;;;38.25;30.50;;;;;-0.32;82.84;102439.66;5018666;28;45631;-82
2022/01/25 05:13:50;;;;;;;;;44.25;36.50;;;;;-0.31;82.49;102437.13;5018537;28;45510;-80
2022/01/25 05:16:31;;;;;;;;;33.00;30.00;;;;;-0.27;82.61;102443.41;5018759;28;45421;-80
2022/01/25 05:22:03;;;;;;;;;38.50;31.00;;;;;-0.24;82.64;102444.47;5023131;28;45473;-80
2022/01/25 05:24:39;;;;;;;;;48.25;37.50;;;;;-0.13;82.64;102441.56;5017932;28;45341;-80
2022/01/25 05:27:07;;;;;;;;;36.50;31.25;;;;;-0.14;82.34;102439.75;5016832;28;45505;-80
2022/01/25 05:29:33;;;;;;;;;35.50;27.00;;;;;-0.14;82.43;102434.56;5016523;28;45392;-80
2022/01/25 05:32:00;;;;;;;;;36.50;32.00;;;;;-0.23;81.88;102420.28;5017433;28;45488;-82
2022/01/25 05:34:26;;;;;;;;;24.50;22.25;;;;;-0.10;82.46;102441.72;5017372;28;45368;-80
2022/01/25 05:36:51;;;;;;;;;39.00;32.25;;;;;-0.06;81.89;102441.06;5016060;28;45609;-81
2022/01/25 05:39:30;;;;;;;;;37.25;27.50;;;;;-0.05;82.59;102435.03;5016212;28;45423;-79
2022/01/25 05:42:02;;;;;;;;;43.50;31.25;;;;;-0.01;82.25;102444.81;5017112;28;45399;-81
2022/01/25 05:47:06;;;;;;;;;38.00;31.00;;;;;0.03;82.08;102438.97;5020878;28;45462;-81
2022/01/25 05:49:37;;;;;;;;;47.75;36.75;;;;;0.08;81.90;102445.28;5015403;28;45404;-81
2022/01/25 05:52:08;;;;;;;;;44.25;34.00;;;;;0.09;81.15;102448.78;5040581;28;45546;-83
2022/01/25 05:54:34;;;;;;;;;31.50;27.25;;;;;0.08;81.53;102441.81;5023442;28;45365;-81
2022/01/25 05:57:00;;;;;;;;;47.00;38.25;;;;;-0.06;81.65;102417.66;5015813;28;46242;-82
2022/01/25 05:59:25;;;;;;;;;36.50;30.50;;;;;0.06;81.59;102440.81;5016170;28;45381;-81
2022/01/25 06:01:51;;;;;;;;;35.25;27.50;;;;;0.03;81.52;102438.97;5017163;28;45394;-82
2022/01/25 06:04:17;;;;;;;;;41.00;31.50;;;;;0.09;81.50;102441.88;5017455;28;45490;-81
2022/01/25 06:06:42;;;;;;;;;48.25;39.25;;;;;-0.06;81.65;102412.44;5016549;28;46316;-81
2022/01/25 06:09:08;;;;;;;;;37.50;35.00;;;;;0.10;81.99;102441.06;5003537;28;45480;-81
2022/01/25 06:11:34;;;;;;;;;43.50;37.50;;;;;0.09;81.82;102440.97;4998430;28;45399;-80
2022/01/25 06:14:00;;;;;;;;;33.50;24.75;;;;;0.10;81.56;102443.66;4998302;28;45665;-81
2022/01/25 06:16:28;;;;;;;;;38.00;31.75;;;;;0.12;81.25;102447.25;4999778;28;46249;-81
2022/01/25 06:18:55;;;;;;;;;44.75;36.00;;;;;0.08;81.92;102441.81;5013356;28;45583;-80
2022/01/25 06:21:21;;;;;;;;;36.75;28.25;;;;;0.04;81.39;102432.03;5019058;28;45956;-81
2022/01/25 06:23:46;;;;;;;;;33.50;33.50;;;;;0.09;81.94;102439.28;5018491;28;45705;-81
2022/01/25 06:26:12;;;;;;;;;38.25;33.25;;;;;0.07;81.58;102443.50;5019713;28;46503;-79
2022/01/25 06:28:37;;;;;;;;;40.50;35.00;;;;;0.10;81.72;102441.06;5019153;28;45509;-80
2022/01/25 06:31:02;;;;;;;;;32.50;26.25;;;;;0.08;82.03;102440.09;5018119;28;45435;-82
2022/01/25 06:33:28;;;;;;;;;29.00;20.50;;;;;0.09;81.56;102449.69;5033834;28;45374;-80
2022/01/25 06:35:53;;;;;;;;;33.00;31.25;;;;;0.06;81.86;102440.81;5052595;28;45588;-82
2022/01/25 06:38:19;;;;;;;;;43.00;34.75;;;;;0.01;81.87;102435.38;5046587;28;45362;-81
2022/01/25 06:40:44;;;;;;;;;38.75;29.50;;;;;0.06;82.00;102446.00;5039837;28;45440;-81
2022/01/25 06:43:10;;;;;;;;;25.00;21.75;;;;;0.09;82.11;102451.38;5034852;28;45590;-81
2022/01/25 06:45:39;;;;;;;;;50.25;37.00;;;;;0.08;82.20;102442.69;5035242;28;45406;-76
2022/01/25 06:48:06;;;;;;;;;47.00;38.00;;;;;0.03;82.11;102433.75;5019989;28;45445;-76
2022/01/25 06:50:32;;;;;;;;;45.50;36.75;;;;;0.02;82.33;102438.88;5000458;28;45616;-74
2022/01/25 06:52:57;;;;;;;;;42.00;33.00;;;;;-0.04;82.27;102429.03;5004359;28;45510;-82
2022/01/25 06:55:23;;;;;;;;;34.00;29.75;;;;;0.01;82.75;102424.97;4995746;28;45494;-77
2022/01/25 06:57:49;;;;;;;;;35.00;33.75;;;;;0.05;83.21;102434.72;4995124;28;45511;-77
2022/01/25 07:00:20;;;;;;;;;43.25;41.00;;;;;0.08;82.54;102426.19;4993639;28;45596;-76
2022/01/25 07:02:46;;;;;;;;;33.00;28.75;;;;;0.12;82.52;102434.25;5013344;28;45316;-76
2022/01/25 07:05:12;;;;;;;;;47.00;36.75;;;;;0.11;82.41;102432.44;5012966;28;46121;-75
2022/01/25 07:07:39;;;;;;;;;42.00;33.25;;;;;0.15;82.86;102439.59;5014694;28;45532;-76
2022/01/25 07:10:06;;;;;;;;;37.25;34.00;;;;;0.15;82.36;102447.41;5014385;28;45519;-77
2022/01/25 07:12:32;;;;;;;;;51.25;44.50;;;;;0.14;82.69;102450.81;5014717;28;45388;-77
2022/01/25 07:14:59;;;;;;;;;42.50;39.00;;;;;0.14;82.55;102443.00;5015593;28;46028;-76
2022/01/25 07:17:26;;;;;;;;;53.00;41.00;;;;;0.17;82.67;102450.97;5015023;28;45562;-77
2022/01/25 07:19:51;;;;;;;;;42.25;37.25;;;;;0.18;82.68;102451.84;5018185;28;45427;-76
2022/01/25 07:22:17;;;;;;;;;44.75;36.50;;;;;0.21;82.34;102454.63;5020122;28;45542;-75
2022/01/25 07:24:44;;;;;;;;;48.00;34.50;;;;;0.20;83.32;102446.72;5016249;28;45424;-79
2022/01/25 07:27:10;;;;;;;;;44.00;35.00;;;;;0.20;82.93;102449.34;5015232;28;45420;-77
2022/01/25 07:29:36;;;;;;;;;49.50;41.50;;;;;0.24;82.48;102448.69;5012882;28;45497;-76
2022/01/25 07:32:02;;;;;;;;;49.00;38.50;;;;;0.32;82.46;102465.59;5035527;28;45369;-76
2022/01/25 07:34:28;;;;;;;;;18.25;9.50;;;;;0.30;82.37;102449.00;5034507;28;47062;-76
2022/01/25 07:36:53;;;;;;;;;51.25;42.50;;;;;0.36;82.05;102459.72;5012034;28;45546;-80
2022/01/25 07:39:19;;;;;;;;;46.25;40.75;;;;;0.38;82.44;102465.94;5021218;28;45471;-81
2022/01/25 07:41:46;;;;;;;;;45.50;40.50;;;;;0.39;82.24;102467.69;5024739;28;45606;-82
2022/01/25 07:44:12;;;;;;;;;42.25;36.75;;;;;0.42;82.26;102470.44;5031854;28;45475;-77
2022/01/25 07:46:38;;;;;;;;;59.00;41.50;;;;;0.46;82.05;102472.41;5031959;28;45453;-77
2022/01/25 07:49:04;;;;;;;;;40.50;34.50;;;;;0.45;81.85;102470.59;5019317;28;45328;-82
2022/01/25 07:51:30;;;;;;;;;49.00;43.25;;;;;0.45;82.38;102470.59;5039206;28;45318;-81
2022/01/25 07:53:56;;;;;;;;;45.25;39.50;;;;;0.43;82.41;102479.16;5021475;28;46033;-81
2022/01/25 07:56:22;;;;;;;;;37.75;32.75;;;;;0.34;82.28;102475.25;5026096;28;45532;-81
2022/01/25 07:58:47;;;;;;;;;54.00;45.00;;;;;0.31;82.96;102476.81;5024159;28;45400;-81
2022/01/25 08:01:17;;;;;;;;;45.00;33.75;;;;;0.38;83.06;102489.34;5016063;28;45402;-81
2022/01/25 08:03:43;;;;;;;;;42.50;35.75;;;;;0.40;83.24;102487.69;5014522;28;45497;-80
2022/01/25 08:06:10;;;;;;;;;35.75;28.00;;;;;0.39;82.67;102483.31;5014423;28;45727;-80
2022/01/25 08:08:36;;;;;;;;;42.25;33.25;;;;;0.41;83.25;102486.91;5026519;28;45589;-80
2022/01/25 08:11:03;;;;;;;;;45.50;38.50;;;;;0.42;83.08;102483.47;5020780;28;45766;-79
2022/01/25 08:13:30;;;;;;;;;45.75;35.50;;;;;0.42;82.93;102485.19;5013667;28;46475;-81
2022/01/25 08:15:56;;;;;;;;;38.25;33.50;;;;;0.42;82.98;102493.88;5014056;28;45395;-80
2022/01/25 08:18:21;;;;;;;;;41.75;30.75;;;;;0.42;82.73;102493.88;5016779;28;45277;-78
2022/01/25 08:20:47;;;;;;;;;41.75;36.00;;;;;0.45;82.74;102501.84;5018962;28;45509;-80
2022/01/25 08:23:12;;;;;;;;;42.50;36.00;;;;;0.38;82.94;102494.53;5031114;28;45522;-79
2022/01/25 08:25:38;;;;;;;;;41.25;38.50;;;;;0.41;82.29;102501.59;5021230;28;45584;-73
2022/01/25 08:28:04;;;;;;;;;37.25;30.00;;;;;0.41;83.03;102505.13;5016731;28;45442;-78
2022/01/25 08:30:29;;;;;;;;;54.50;40.25;;;;;0.34;82.19;102497.78;5008100;28;45640;-76
2022/01/25 08:32:55;;;;;;;;;42.75;39.50;;;;;0.36;83.21;102506.56;5019100;28;45371;-76
2022/01/25 08:35:21;;;;;;;;;45.50;38.25;;;;;0.41;82.69;102505.13;5026788;28;45487;-75
2022/01/25 08:37:48;;;;;;;;;34.00;26.00;;;;;0.41;82.44;102499.91;5025686;28;45438;-75
2022/01/25 08:40:13;;;;;;;;;39.25;34.00;;;;;0.44;82.60;102501.75;5016022;28;45424;-73
2022/01/25 08:42:39;;;;;;;;;37.00;34.00;;;;;0.44;82.53;102500.06;5017365;28;46004;-75
2022/01/25 08:45:07;;;;;;;;;42.75;41.50;;;;;0.43;82.22;102500.00;5026972;28;45428;-75
2022/01/25 08:47:33;;;;;;;;;44.00;35.00;;;;;0.41;82.31;102506.78;5023602;28;45486;-74
2022/01/25 08:49:59;;;;;;;;;43.25;32.75;;;;;0.34;82.01;102487.38;5027411;28;45595;-76
2022/01/25 08:52:24;;;;;;;;;48.25;39.50;;;;;0.42;82.62;102493.88;5021459;28;46165;-77
2022/01/25 08:54:50;;;;;;;;;47.50;39.50;;;;;0.43;82.37;102498.28;5032960;28;45660;-76
2022/01/25 08:57:16;;;;;;;;;33.50;24.50;;;;;0.46;82.35;102503.63;5007494;28;45412;-76
2022/01/25 08:59:41;;;;;;;;;29.00;23.50;;;;;0.37;81.88;102477.13;5039484;28;45607;-76
2022/01/25 09:02:08;;;;;;;;;52.25;36.25;;;;;0.49;82.16;102495.97;5022007;28;46298;-76
2022/01/25 09:04:34;;;;;;;;;41.50;32.50;;;;;0.51;81.85;102502.16;5023014;28;45422;-75
2022/01/25 09:06:59;;;;;;;;;40.00;31.75;;;;;0.57;82.07;102500.69;5019400;28;45486;-76
2022/01/25 09:09:25;;;;;;;;;39.00;32.50;;;;;0.58;82.04;102502.47;5022261;28;45516;-76
2022/01/25 09:11:50;;;;;;;;;37.25;33.00;;;;;0.56;82.07;102504.09;5022017;28;46266;-75
2022/01/25 09:14:15;;;;;;;;;35.50;31.50;;;;;0.68;81.60;102509.94;5025292;28;45461;-76
2022/01/25 09:16:41;;;;;;;;;36.00;30.25;;;;;0.72;82.21;102508.41;5014809;28;45427;-76
2022/01/25 09:19:08;;;;;;;;;50.50;39.75;;;;;0.72;81.56;102506.69;5026834;28;45497;-75
2022/01/25 09:21:34;;;;;;;;;37.25;30.00;;;;;0.80;81.55;102510.56;5032258;28;45484;-75
2022/01/25 09:24:00;;;;;;;;;42.25;36.25;;;;;0.86;81.33;102510.88;5034932;28;45491;-76
2022/01/25 09:26:26;;;;;;;;;37.00;36.75;;;;;0.92;81.25;102504.19;5029360;28;45372;-76
2022/01/25 09:28:54;;;;;;;;;42.00;36.75;;;;;1.00;81.55;102515.88;5030032;28;45556;-75
2022/01/25 09:31:21;;;;;;;;;38.75;35.00;;;;;1.06;81.04;102518.78;5039727;28;46203;-80
2022/01/25 09:33:47;;;;;;;;;43.75;35.00;;;;;1.05;81.03;102506.59;5019104;28;45927;-80
2022/01/25 09:36:13;;;;;;;;;38.00;32.75;;;;;1.05;81.33;102514.41;5020172;28;45566;-80
2022/01/25 09:38:38;;;;;;;;;39.25;37.25;;;;;1.09;80.56;102518.94;5026065;28;45423;-79
2022/01/25 09:41:04;;;;;;;;;41.25;35.50;;;;;1.15;80.55;102523.56;5018540;28;46205;-75
2022/01/25 09:43:30;;;;;;;;;43.75;39.00;;;;;1.13;80.89;102526.09;5016795;28;45640;-75
2022/01/25 09:45:56;;;;;;;;;49.25;43.00;;;;;1.15;80.11;102532.28;5027115;28;45447;-75
2022/01/25 09:48:22;;;;;;;;;53.00;42.00;;;;;1.20;80.47;102523.00;5020220;28;45582;-76
2022/01/25 09:50:48;;;;;;;;;41.75;39.50;;;;;1.27;80.70;102526.78;5029229;28;45576;-74
2022/01/25 09:53:13;;;;;;;;;39.75;29.25;;;;;1.33;79.80;102531.41;5030579;28;45554;-76
2022/01/25 09:55:43;;;;;;;;;45.50;39.00;;;;;1.35;80.20;102533.28;5026910;28;45558;-74
2022/01/25 09:58:12;;;;;;;;;49.00;38.00;;;;;1.33;80.01;102527.06;5019105;28;45405;-76
2022/01/25 10:00:39;;;;;;;;;45.00;38.50;;;;;1.34;80.42;102530.59;5014554;28;45478;-76
2022/01/25 10:03:21;;;;;;;;;54.75;46.50;;;;;1.34;79.90;102531.47;5022088;28;45457;-76
2022/01/25 10:05:49;;;;;;;;;55.50;43.25;;;;;1.32;79.62;102530.53;5027753;28;45765;-76
2022/01/25 10:08:20;;;;;;;;;59.50;40.25;;;;;1.32;79.68;102535.75;5017367;28;45379;-76
2022/01/25 10:11:01;;;;;;;;;52.75;41.25;;;;;1.38;79.58;102533.44;5015530;28;46340;-76
2022/01/25 10:13:30;;;;;;;;;41.25;33.25;;;;;1.45;80.08;102532.00;5025369;28;45379;-76
2022/01/25 10:16:01;;;;;;;;;40.75;36.50;;;;;1.51;79.44;102529.69;5034742;28;45584;-78
2022/01/25 10:19:01;;;;;;;;;49.25;38.00;;;;;1.58;79.06;102537.00;5020162;28;45375;-76
2022/01/25 10:21:33;;;;;;;;;49.00;38.75;;;;;1.63;79.08;102536.34;4941482;28;45540;-76
2022/01/25 10:24:07;;;;;;;;;41.00;33.00;;;;;1.67;78.93;102541.75;4941187;28;45489;-76
2022/01/25 10:26:58;;;;;;;;;43.50;38.50;;;;;1.72;78.97;102544.59;4942609;28;45410;-76
2022/01/25 10:29:32;;;;;;;;;43.25;38.50;;;;;1.73;79.44;102541.13;4929332;28;45492;-75
2022/01/25 10:32:00;;;;;;;;;42.25;32.00;;;;;1.74;78.95;102532.50;4939960;28;46349;-76
2022/01/25 10:34:27;;;;;;;;;43.25;33.00;;;;;1.77;78.50;102541.34;4944393;28;45543;-76
2022/01/25 10:36:53;;;;;;;;;51.50;39.50;;;;;1.82;78.83;102536.34;4941318;28;45609;-76
2022/01/25 10:39:26;;;;;;;;;38.75;29.75;;;;;1.88;78.10;102535.75;4935499;28;45456;-75
2022/01/25 10:41:51;;;;;;;;;36.25;33.25;;;;;1.92;77.82;102541.19;4940382;28;46345;-77
2022/01/25 10:44:17;;;;;;;;;42.75;39.00;;;;;1.93;77.51;102545.59;4942552;28;45617;-77
2022/01/25 10:46:43;;;;;;;;;44.50;30.75;;;;;1.94;77.32;102542.19;4940877;28;45606;-78
2022/01/25 10:49:13;;;;;;;;;46.25;35.00;;;;;2.01;77.58;102538.13;4939070;28;45567;-76
2022/01/25 10:51:45;;;;;;;;;34.50;33.75;;;;;2.09;77.02;102547.19;4947252;28;45442;-77
2022/01/25 10:54:21;;;;;;;;;57.00;45.75;;;;;2.13;77.33;102553.47;4948830;28;45639;-77
2022/01/25 10:56:50;;;;;;;;;44.25;37.00;;;;;2.17;77.42;102550.19;4939540;28;45502;-85
2022/01/25 10:59:22;;;;;;;;;39.25;34.75;;;;;2.12;76.59;102536.00;5006846;28;45578;-76
2022/01/25 11:01:58;;;;;;;;;34.50;32.75;;;;;2.21;76.75;102545.97;5022478;28;45516;-76
2022/01/25 11:04:31;;;;;;;;;38.00;33.00;;;;;2.26;76.88;102544.47;5021251;28;45584;-75
2022/01/25 11:07:04;;;;;;;;;40.00;36.50;;;;;2.26;75.99;102539.25;5019506;28;45616;-76
2022/01/25 11:09:37;;;;;;;;;33.75;29.50;;;;;2.33;76.01;102541.31;5027881;28;45490;-76
2022/01/25 11:12:05;;;;;;;;;36.50;30.50;;;;;2.31;75.50;102541.25;5029798;28;45466;-80
2022/01/25 11:17:15;;;;;;;;;45.50;35.50;;;;;2.42;76.62;102533.00;5026544;28;45318;-81
2022/01/25 11:19:40;;;;;;;;;39.50;34.75;;;;;2.46;76.54;102528.00;5027441;28;45422;-80
2022/01/25 11:22:09;;;;;;;;;54.50;43.75;;;;;2.40;75.44;102500.69;5031522;28;46242;-80
2022/01/25 11:24:37;;;;;;;;;37.00;33.00;;;;;2.55;75.35;102532.72;5024557;28;45455;-81
2022/01/25 11:27:06;;;;;;;;;33.25;31.00;;;;;2.53;75.15;102528.25;5025582;28;45459;-76
2022/01/25 11:29:39;;;;;;;;;48.00;37.25;;;;;2.49;75.02;102528.13;5024603;28;45452;-77
2022/01/25 11:32:10;;;;;;;;;47.75;41.00;;;;;2.59;75.73;102528.53;5022541;28;47002;-76
2022/01/25 11:34:37;;;;;;;;;40.75;39.75;;;;;2.66;76.01;102533.19;5022267;28;45331;-77
2022/01/25 11:37:07;;;;;;;;;50.75;40.50;;;;;2.66;75.27;102526.25;5017062;28;45489;-76
2022/01/25 11:39:34;;;;;;;;;54.25;33.75;;;;;2.69;75.08;102535.03;5015712;28;45626;-77
2022/01/25 11:42:11;;;;;;;;;53.00;41.25;;;;;2.65;74.70;102534.91;5024864;28;47207;-79
2022/01/25 11:44:57;;;;;;;;;42.75;37.75;;;;;2.69;75.36;102535.03;5032040;28;45420;-77
2022/01/25 11:47:32;;;;;;;;;44.75;37.75;;;;;2.75;74.77;102527.47;5026776;28;45544;-76
2022/01/25 11:50:06;;;;;;;;;54.50;42.75;;;;;2.80;75.00;102528.56;5026124;28;45496;-76
2022/01/25 11:52:32;;;;;;;;;43.25;37.00;;;;;2.82;75.08;102524.28;5014313;28;46089;-76
2022/01/25 11:55:16;;;;;;;;;53.25;32.25;;;;;2.83;74.09;102528.69;5022337;28;45605;-76
2022/01/25 11:58:09;;;;;;;;;47.50;40.50;;;;;2.74;74.90;102518.75;5024848;28;45375;-76
2022/01/25 12:00:41;;;;;;;;;51.50;38.50;;;;;2.78;74.29;102524.97;5015448;28;45499;-77
2022/01/25 12:03:32;;;;;;;;;54.25;40.25;;;;;2.77;75.70;102518.00;5022218;28;46316;-76
2022/01/25 12:06:07;;;;;;;;;43.00;35.50;;;;;2.73;74.72;102516.06;5015235;28;45952;-77
2022/01/25 12:11:41;;;;;;;;;39.50;36.50;;;;;2.74;75.07;102505.69;5019198;28;45396;-77
2022/01/25 12:14:16;;;;;;;;;41.50;34.50;;;;;2.86;75.28;102518.38;5028544;28;46368;-77
2022/01/25 12:16:56;;;;;;;;;38.75;29.50;;;;;2.94;74.83;102514.34;5018832;28;45478;-77
2022/01/25 12:19:45;;;;;;;;;34.50;28.50;;;;;3.01;74.90;102513.78;5029571;28;45366;-76
2022/01/25 12:22:37;;;;;;;;;51.75;44.50;;;;;3.07;74.17;102509.63;5015482;28;45576;-85
2022/01/25 12:25:44;;;;;;;;;52.00;39.75;;;;;3.08;74.08;102493.16;5009444;28;46904;-86
2022/01/25 12:28:22;;;;;;;;;54.75;45.25;;;;;3.14;73.60;102494.31;4937913;28;45534;-78
2022/01/25 12:30:47;;;;;;;;;54.50;46.00;;;;;3.16;74.13;102496.97;4936343;28;45654;-76
2022/01/25 12:33:26;;;;;;;;;38.75;36.25;;;;;3.10;73.65;102495.00;4939475;28;45483;-80
2022/01/25 12:36:03;;;;;;;;;50.00;42.50;;;;;3.16;73.05;102489.16;4935707;28;45548;-80
2022/01/25 12:38:49;;;;;;;;;56.75;38.50;;;;;3.20;73.22;102489.34;4940648;28;45568;-81
2022/01/25 12:41:16;;;;;;;;;53.00;38.00;;;;;3.23;73.25;102503.34;4941063;28;45508;-79
2022/01/25 12:43:50;;;;;;;;;60.50;41.25;;;;;3.21;72.68;102487.59;4939126;28;45512;-81
2022/01/25 12:46:26;;;;;;;;;54.50;45.25;;;;;3.25;72.98;102486.91;4942310;28;46340;-81
2022/01/25 12:48:55;;;;;;;;;47.25;40.50;;;;;3.26;72.59;102487.78;4939441;28;45628;-81
2022/01/25 12:51:24;;;;;;;;;55.00;44.50;;;;;3.28;73.28;102484.41;4938022;28;45486;-80
2022/01/25 12:53:54;;;;;;;;;58.75;45.00;;;;;3.28;72.53;102483.50;4936660;28;45500;-80
2022/01/25 12:56:29;;;;;;;;;56.75;45.00;;;;;3.31;72.42;102475.78;4936506;28;45626;-80
2022/01/25 12:59:00;;;;;;;;;44.25;34.75;;;;;3.29;72.86;102478.34;4936851;28;45410;-80
2022/01/25 13:01:27;;;;;;;;;56.50;41.25;;;;;3.27;72.77;102461.72;4938121;28;45427;-79
2022/01/25 13:03:59;;;;;;;;;47.75;41.00;;;;;3.33;72.86;102464.56;4955842;28;45574;-80
2022/01/25 13:06:27;;;;;;;;;51.00;39.00;;;;;3.33;72.90;102469.78;5019194;28;45493;-80